Flight Track Log - Related Links

Times and Time Zones

All times are in EDT time to prevent confusion due to time zone crossing. See the SWA250 flight status page for this flight to view local times or setup timezone preferences in your user account.

Time Position Orientation Groundspeed Altitude Reporting Facility
EDT Latitude Longitude Course Direction KTS MPH feet Rate Location/Type
Mon 12:30:24 AM 29.6658 -95.2325 34° Northeast 227 261 3,400  Level Houston Center
Mon 12:31:07 AM 29.6831 -95.2758 295° West 230 265 4,900 3,087 Climbing Houston Center
Mon 12:32:07 AM 29.7069 -95.3581 289° West 262 302 8,700 3,273 Climbing Houston Center
Mon 12:33:08 AM 29.7314 -95.4469 288° West 284 327 11,500 3,223 Climbing Houston Center
Mon 12:34:08 AM 29.7606 -95.5550 287° West 345 397 15,200 3,750 Climbing Houston Center
Mon 12:35:08 AM 29.7897 -95.6625 287° West 352 405 19,000 3,917 Climbing Houston Center
Mon 12:36:09 AM 29.8139 -95.7581 286° West 321 369 23,100 3,521 Climbing Houston Center
Mon 12:37:09 AM 29.8447 -95.8506 291° West 312 359 26,100 1,850 Climbing Houston Center
Mon 12:38:09 AM 29.8931 -95.9481 300° West 348 400 26,800 1,289 Climbing Houston Center
Mon 12:39:10 AM 29.9406 -96.0556 297° West 377 434 28,700 1,785 Climbing Houston Center
Mon 12:40:10 AM 29.9900 -96.1678 297° West 391 450 30,400 2,000 Climbing Houston Center
Mon 12:41:10 AM 30.0406 -96.2800 298° West 394 453 32,700 2,132 Climbing Houston Center
Mon 12:42:11 AM 30.0900 -96.3919 297° West 392 451 34,700 1,934 Climbing Houston Center
Mon 12:43:11 AM 30.1417 -96.5111 297° West 382 440 36,600 1,600 Climbing Houston Center
Mon 12:44:11 AM 30.1908 -96.6242 297° West 387 445 37,900 1,400 Climbing Houston Center
Mon 12:45:11 AM 30.2397 -96.7367 297° West 387 445 39,400 1,041 Climbing Houston Center
Mon 12:46:12 AM 30.2872 -96.8467 297° West 378 435 40,000 298 Climbing Houston Center
Mon 12:47:12 AM 30.3361 -96.9553 298° West 376 433 40,000  Level Houston Center
Mon 12:48:12 AM 30.3836 -97.0672 296° West 381 438 40,000  Level Houston Center
Mon 12:49:13 AM 30.4317 -97.1764 297° West 377 434 40,000  Level Houston Center
Mon 12:50:13 AM 30.4794 -97.2886 296° West 382 440 40,000  Level Houston Center
Mon 12:51:13 AM 30.5283 -97.4011 297° West 384 442 40,000  Level Houston Center
Mon 12:52:13 AM 30.5767 -97.5161 296° West 389 448 40,000  Level Houston Center
Mon 12:53:14 AM 30.6267 -97.6311 297° West 391 450 40,000  Level Houston Center
Mon 12:54:14 AM 30.6722 -97.7247 300° West 393 452 40,000  Level Houston Center
Mon 12:55:14 AM 30.7336 -97.8342 303° West 398 458 40,000  Level Houston Center
Mon 12:56:14 AM 30.7947 -97.9439 303° West 398 458 40,000  Level Houston Center
Mon 12:57:14 AM 30.8544 -98.0550 302° West 400 460 40,000  Level Houston Center
Mon 12:58:15 AM 30.9156 -98.1658 303° West 401 461 40,000  Level Houston Center
Mon 12:59:15 AM 30.9772 -98.2764 303° West 402 463 40,000  Level Houston Center
Mon 01:00:15 AM 31.0378 -98.3892 302° West 404 465 40,000  Level Houston Center
Mon 01:01:15 AM 31.0981 -98.5008 302° West 404 465 40,000  Level Houston Center
Mon 01:02:16 AM 31.1586 -98.6136 302° West 406 467 40,000  Level Houston Center
Mon 01:03:16 AM 31.2206 -98.7261 303° West 407 468 40,000  Level Houston Center
Mon 01:04:16 AM 31.2811 -98.8389 302° West 406 467 40,000  Level Houston Center
Mon 01:05:16 AM 31.3408 -98.9494 302° West 399 459 40,000  Level Houston Center
Mon 01:06:17 AM 31.3997 -99.0619 302° West 400 460 40,000  Level Houston Center
Mon 01:07:22 AM 31.4578 -99.1767 301° West 407 468 40,000  Level Fort Worth Center
Mon 01:08:22 AM 31.5167 -99.2850 303° West 407 468 40,000  Level Fort Worth Center
Mon 01:09:22 AM 31.5775 -99.4008 302° West 407 468 40,000  Level Fort Worth Center
Mon 01:10:22 AM 31.6361 -99.5142 301° West 407 468 40,000  Level Fort Worth Center
Mon 01:11:22 AM 31.7031 -99.6403 302° West 413 475 40,000  Level Fort Worth Center
Mon 01:12:22 AM 31.7636 -99.7542 302° West 408 470 40,000  Level Fort Worth Center
Mon 01:13:22 AM 31.8239 -99.8731 301° West 408 470 40,000  Level Fort Worth Center
Mon 01:14:22 AM 31.8861 -99.9897 302° West 413 475 40,000  Level Fort Worth Center
Mon 01:15:22 AM 31.9464 -100.1089 301° West 413 475 40,000  Level Fort Worth Center
Mon 01:16:22 AM 32.0106 -100.2283 302° West 418 481 40,000  Level Fort Worth Center
Mon 01:17:22 AM 32.0706 -100.3478 301° West 423 487 40,000  Level Fort Worth Center
Mon 01:18:22 AM 32.1322 -100.4700 301° West 428 493 40,000  Level Fort Worth Center
Mon 01:19:22 AM 32.1961 -100.5900 302° West 433 498 40,000  Level Fort Worth Center
Mon 01:20:22 AM 32.2578 -100.7103 301° West 433 498 40,000  Level Fort Worth Center
Mon 01:21:22 AM 32.3211 -100.8328 301° West 433 498 40,000  Level Fort Worth Center
Mon 01:22:22 AM 32.3803 -100.9556 300° West 433 498 40,000  Level Fort Worth Center
Mon 01:23:22 AM 32.4458 -101.0789 302° West 433 498 40,000  Level Fort Worth Center
Mon 01:24:22 AM 32.5069 -101.2019 301° West 433 498 40,000  Level Fort Worth Center
Mon 01:25:22 AM 32.5700 -101.3231 302° West 433 498 40,000  Level Fort Worth Center
Mon 01:26:22 AM 32.6347 -101.4492 301° West 433 498 40,000  Level Fort Worth Center
Mon 01:27:22 AM 32.6994 -101.5756 301° West 439 505 40,000  Level Fort Worth Center
Mon 01:28:22 AM 32.7600 -101.6992 300° West 439 505 40,000  Level Fort Worth Center
Mon 01:29:22 AM 32.8225 -101.8233 301° West 439 505 40,000  Level Fort Worth Center
Mon 01:30:22 AM 32.8769 -101.9400 299° West 439 505 40,000  Level Fort Worth Center
Mon 01:31:22 AM 32.9428 -102.0769 300° West 439 505 40,000  Level Fort Worth Center
Mon 01:32:22 AM 33.0050 -102.2014 301° West 439 505 40,000  Level Fort Worth Center
Mon 01:33:22 AM 33.0628 -102.3211 300° West 447 514 40,000  Level Fort Worth Center
Mon 01:34:22 AM 33.1306 -102.4586 301° West 447 514 40,000  Level Fort Worth Center
Mon 01:35:22 AM 33.1842 -102.5711 300° West 447 514 40,000  Level Fort Worth Center
Mon 01:36:22 AM 33.2519 -102.6992 302° West 453 521 40,000  Level Fort Worth Center
Mon 01:38:24 AM 33.3742 -102.9556 300° West 451 519 40,000  Level Albuquerque Center
Mon 01:39:24 AM 33.4375 -103.0864 300° West 453 521 40,000 -50 Level Albuquerque Center
Mon 01:40:25 AM 33.5003 -103.2181 300° West 455 524 39,900 -545 Descending Albuquerque Center
Mon 01:41:25 AM 33.5622 -103.3503 299° West 456 525 38,900 -1,000 Descending Albuquerque Center
Mon 01:42:25 AM 33.6247 -103.4817 300° West 455 524 37,900 -1,041 Descending Albuquerque Center
Mon 01:43:26 AM 33.7033 -103.6458 300° West 465 535 36,800 -942 Descending Albuquerque Center
Mon 01:44:26 AM 33.7669 -103.7850 299° West 478 550 36,000 -397 Descending Albuquerque Center
Mon 01:45:27 AM 33.8328 -103.9258 299° West 485 558 36,000  Level Albuquerque Center
Mon 01:46:27 AM 33.8961 -104.0644 299° West 478 550 36,000  Level Albuquerque Center
Mon 01:47:27 AM 33.9619 -104.2067 299° West 485 558 36,000  Level Albuquerque Center
Mon 01:49:28 AM 34.0869 -104.4772 299° West 479 551 36,000  Level Albuquerque Center
Mon 01:50:29 AM 34.1522 -104.6183 299° West 476 548 36,000  Level Albuquerque Center
Mon 01:51:29 AM 34.2178 -104.7608 299° West 477 549 36,000  Level Albuquerque Center
Mon 01:52:29 AM 34.2836 -104.9033 299° West 479 551 36,000  Level Albuquerque Center
Mon 01:53:30 AM 34.3483 -105.0469 299° West 481 554 36,000  Level Albuquerque Center
Mon 01:54:30 AM 34.4125 -105.1881 299° West 476 548 36,000 -300 Level Albuquerque Center
Mon 01:55:30 AM 34.4778 -105.3311 299° West 479 551 35,400 -1,587 Descending Albuquerque Center
Mon 01:56:31 AM 34.5411 -105.4728 299° West 476 548 32,800 -3,372 Descending Albuquerque Center
Mon 01:57:31 AM 34.6056 -105.6158 299° West 476 548 28,600 -3,947 Descending Albuquerque Center
Mon 01:58:25 AM 34.6667 -105.7617 297° West 497 572 25,300 -3,205 Descending Albuquerque Center
Mon 01:58:44 AM 34.6850 -105.8033 298° West 492 566 24,700 -2,409 Descending Albuquerque Center
Mon 02:00:32 AM 34.7917 -106.0347 299° West 450 518 20,200 -2,308 Descending Albuquerque Center
Mon 02:01:33 AM 34.8453 -106.1606 297° West 425 489 18,200 -1,884 Descending Albuquerque Center
Mon 02:02:33 AM 34.8881 -106.2625 297° West 397 457 16,400 -2,500 Descending Albuquerque Center
Mon 02:03:33 AM 34.9056 -106.3878 280° West 377 434 13,200 -2,727 Descending Albuquerque Center
Mon 02:04:34 AM 34.9089 -106.5103 272° West 373 429 10,900 -1,537 Descending Albuquerque Center
Mon 02:05:34 AM 34.8756 -106.6106 248° West 336 387 10,100 -1,500 Descending Albuquerque Center
Mon 02:06:34 AM 34.9081 -106.6922 296° West 291 335 7,900 -1,438 Descending Albuquerque Center
Mon 02:07:35 AM 34.9550 -106.7250 330° Northwest 238 274 7,200 -744 Descending Albuquerque Center
Mon 02:08:35 AM 34.9833 -106.6769 54° Northeast 197 227 6,400 -960 Descending Albuquerque Center
Mon 02:08:50 AM 34.9981 -106.6611 41° Northeast 165 190 6,000 -984 Descending Albuquerque Center
Mon 02:09:36 AM 35.0211 -106.6303 48° Northeast 174 200 5,400 -783 Descending Albuquerque Center

Login

Don't have an account? Register now (free) for customized features, flight alerts, and more!